createdAt,value
2022-10-26T00:00:29.873Z,0.00
2022-10-26T00:01:30.023Z,0.00
2022-10-26T00:02:29.906Z,0.00
2022-10-26T00:03:29.840Z,0.00
2022-10-26T00:04:29.816Z,0.00
2022-10-26T00:05:29.835Z,0.00
2022-10-26T00:06:29.788Z,0.00
2022-10-26T00:07:29.899Z,0.00
2022-10-26T00:08:29.785Z,0.00
2022-10-26T00:09:29.770Z,0.00
2022-10-26T00:10:31.643Z,0.00
2022-10-26T00:11:29.762Z,0.00
2022-10-26T00:12:29.742Z,0.00
2022-10-26T00:13:29.723Z,0.00
2022-10-26T00:14:29.711Z,0.00
2022-10-26T00:15:29.697Z,0.00
2022-10-26T00:16:29.697Z,0.00
2022-10-26T00:17:29.670Z,0.00
2022-10-26T00:18:29.657Z,0.00
2022-10-26T00:19:29.653Z,0.00
2022-10-26T00:20:29.657Z,0.00
2022-10-26T00:21:29.630Z,0.00
2022-10-26T00:22:29.608Z,0.00
2022-10-26T00:23:29.612Z,0.00
2022-10-26T00:24:29.671Z,0.00
2022-10-26T00:25:29.630Z,0.00
2022-10-26T00:26:29.664Z,0.00
2022-10-26T00:27:29.612Z,0.00
2022-10-26T00:28:29.594Z,0.00
2022-10-26T00:29:29.542Z,0.00
2022-10-26T00:30:29.518Z,0.00
2022-10-26T00:31:29.519Z,0.00
2022-10-26T00:32:29.574Z,0.00
2022-10-26T00:33:29.495Z,0.00
2022-10-26T00:34:29.480Z,0.00
2022-10-26T00:35:44.961Z,0.00
2022-10-26T00:36:30.452Z,0.00
2022-10-26T00:37:29.459Z,0.00
2022-10-26T00:38:29.453Z,0.00
2022-10-26T00:39:29.423Z,0.00
2022-10-26T00:40:29.430Z,0.00
2022-10-26T00:41:29.427Z,0.00
2022-10-26T00:42:29.397Z,0.00
2022-10-26T00:43:29.395Z,0.00
2022-10-26T00:44:33.347Z,0.00
2022-10-26T00:45:30.359Z,0.00
2022-10-26T00:46:29.353Z,0.00
2022-10-26T00:47:29.350Z,0.00
2022-10-26T00:48:29.326Z,0.00
2022-10-26T00:49:29.315Z,0.00
2022-10-26T00:50:29.297Z,0.00
2022-10-26T00:51:29.293Z,0.00
2022-10-26T00:52:29.275Z,0.00
2022-10-26T00:53:29.260Z,0.00
2022-10-26T00:54:29.249Z,0.00
2022-10-26T00:55:29.243Z,0.00
2022-10-26T00:56:29.225Z,0.00
2022-10-26T00:57:29.258Z,0.00
2022-10-26T00:58:29.215Z,0.00
2022-10-26T00:59:29.214Z,0.00
2022-10-26T01:00:29.188Z,0.00
2022-10-26T01:01:29.253Z,0.00
2022-10-26T01:02:29.169Z,0.00
2022-10-26T01:03:29.172Z,0.00
2022-10-26T01:04:29.171Z,0.00
2022-10-26T01:05:29.133Z,0.00
2022-10-26T01:06:29.116Z,0.00
2022-10-26T01:07:29.103Z,0.00
2022-10-26T01:08:29.110Z,0.00
2022-10-26T01:09:29.085Z,0.00
2022-10-26T01:10:29.102Z,0.00
2022-10-26T01:11:29.087Z,0.00
2022-10-26T01:12:29.049Z,0.00
2022-10-26T01:13:29.033Z,0.00
2022-10-26T01:14:29.052Z,0.00
2022-10-26T01:15:29.041Z,0.00
2022-10-26T01:16:29.009Z,0.00
2022-10-26T01:17:28.991Z,0.00
2022-10-26T01:18:28.994Z,0.00
2022-10-26T01:19:28.974Z,0.00
2022-10-26T01:20:28.994Z,0.00
2022-10-26T01:21:28.959Z,0.00
2022-10-26T01:22:28.964Z,0.00
2022-10-26T01:23:28.929Z,0.00
2022-10-26T01:24:28.915Z,0.00
2022-10-26T01:25:28.901Z,0.00
2022-10-26T01:26:28.900Z,0.00
2022-10-26T01:27:28.917Z,0.00
2022-10-26T01:28:28.873Z,0.00
2022-10-26T01:29:28.853Z,0.00
2022-10-26T01:30:28.842Z,0.00
2022-10-26T01:31:28.859Z,0.00
2022-10-26T01:32:28.828Z,0.00
2022-10-26T01:33:28.857Z,0.00
2022-10-26T01:34:28.811Z,0.00
2022-10-26T01:35:28.788Z,0.00
2022-10-26T01:36:28.849Z,0.00
2022-10-26T01:37:28.780Z,0.00
2022-10-26T01:38:28.774Z,0.00
2022-10-26T01:39:28.751Z,0.00
2022-10-26T01:40:28.729Z,0.00
2022-10-26T01:41:28.725Z,0.00
2022-10-26T01:42:28.709Z,0.00
2022-10-26T01:43:28.717Z,0.00
2022-10-26T01:44:28.717Z,0.00
2022-10-26T01:45:28.718Z,0.00
2022-10-26T01:46:28.663Z,0.00
2022-10-26T01:47:28.700Z,0.00
2022-10-26T01:48:28.651Z,0.00
2022-10-26T01:49:28.655Z,0.00
2022-10-26T01:50:28.616Z,0.00
2022-10-26T01:51:28.610Z,0.00
2022-10-26T01:52:28.600Z,0.00
2022-10-26T01:53:28.588Z,0.00
2022-10-26T01:54:28.654Z,0.00
2022-10-26T01:55:28.580Z,0.00
2022-10-26T01:56:28.550Z,0.00
2022-10-26T01:57:28.542Z,0.00
2022-10-26T01:58:28.556Z,0.00
2022-10-26T01:59:28.518Z,0.00
2022-10-26T02:00:28.521Z,0.00
2022-10-26T02:01:28.601Z,0.00
2022-10-26T02:02:28.493Z,0.00
2022-10-26T02:03:28.573Z,0.00
2022-10-26T02:04:28.471Z,0.00
2022-10-26T02:05:28.489Z,0.00
2022-10-26T02:06:28.444Z,0.00
2022-10-26T02:07:28.438Z,0.00
2022-10-26T02:08:28.431Z,0.00
2022-10-26T02:09:28.411Z,0.00
2022-10-26T02:10:28.437Z,0.00
2022-10-26T02:11:28.382Z,0.00
2022-10-26T02:12:28.415Z,0.00
2022-10-26T02:13:28.362Z,0.00
2022-10-26T02:14:28.345Z,0.00
2022-10-26T02:15:28.347Z,0.00
2022-10-26T02:16:28.340Z,0.00
2022-10-26T02:17:28.344Z,0.00
2022-10-26T02:18:28.299Z,0.00
2022-10-26T02:19:28.321Z,0.00
2022-10-26T02:20:28.284Z,0.00
2022-10-26T02:21:28.270Z,0.00
2022-10-26T02:22:28.265Z,0.00
2022-10-26T02:23:28.264Z,0.00
2022-10-26T02:24:28.245Z,0.00
2022-10-26T02:25:28.243Z,0.00
2022-10-26T02:26:28.227Z,0.00
2022-10-26T02:27:28.210Z,0.00
2022-10-26T02:28:28.205Z,0.00
2022-10-26T02:29:28.177Z,0.00
2022-10-26T02:30:28.186Z,0.00
2022-10-26T02:31:28.173Z,0.00
2022-10-26T02:32:28.158Z,0.00
2022-10-26T02:33:28.148Z,0.00
2022-10-26T02:34:28.135Z,0.00
2022-10-26T02:35:28.155Z,0.00
2022-10-26T02:36:28.112Z,0.00
2022-10-26T02:37:28.093Z,0.00
2022-10-26T02:38:28.077Z,0.00
2022-10-26T02:39:28.079Z,0.00
2022-10-26T02:40:28.064Z,0.00
2022-10-26T02:41:28.051Z,0.00
2022-10-26T02:42:28.049Z,0.00
2022-10-26T02:43:28.063Z,0.00
2022-10-26T02:44:28.022Z,0.00
2022-10-26T02:45:28.014Z,0.00
2022-10-26T02:46:27.992Z,0.00
2022-10-26T02:47:27.978Z,0.00
2022-10-26T02:48:27.977Z,0.00
2022-10-26T02:49:27.957Z,0.00
2022-10-26T02:50:27.954Z,0.00
2022-10-26T02:51:27.969Z,0.00
2022-10-26T02:52:27.919Z,0.00
2022-10-26T02:53:27.906Z,0.00
2022-10-26T02:54:27.900Z,0.00
2022-10-26T02:55:27.904Z,0.00
2022-10-26T02:56:27.891Z,0.00
2022-10-26T02:57:27.863Z,0.00
2022-10-26T02:58:27.858Z,0.00
2022-10-26T02:59:27.851Z,0.00
2022-10-26T03:00:27.846Z,0.00
2022-10-26T03:01:27.887Z,0.00
2022-10-26T03:02:27.807Z,0.00
2022-10-26T03:03:27.799Z,0.00
2022-10-26T03:04:27.891Z,0.00
2022-10-26T03:05:27.788Z,0.00
2022-10-26T03:06:27.763Z,0.00
2022-10-26T03:07:27.784Z,0.00
2022-10-26T03:09:27.735Z,0.00
2022-10-26T03:10:27.756Z,0.00
2022-10-26T03:11:27.703Z,0.00
2022-10-26T03:12:27.748Z,0.00
2022-10-26T03:13:27.691Z,0.00
2022-10-26T03:14:27.688Z,0.00
2022-10-26T03:15:27.658Z,0.00
2022-10-26T03:16:27.674Z,0.00
2022-10-26T03:17:27.642Z,0.00
2022-10-26T03:18:27.650Z,0.00
2022-10-26T03:19:27.642Z,0.00
2022-10-26T03:20:27.609Z,0.00
2022-10-26T03:21:27.597Z,0.00
2022-10-26T03:22:27.593Z,0.00
2022-10-26T03:23:27.591Z,0.00
2022-10-26T03:24:27.584Z,0.00
2022-10-26T03:25:27.557Z,0.00
2022-10-26T03:26:27.543Z,0.00
2022-10-26T03:27:27.532Z,0.00
2022-10-26T03:28:27.527Z,0.00
2022-10-26T03:29:27.505Z,0.00
2022-10-26T03:30:27.491Z,0.00
2022-10-26T03:31:27.477Z,0.00
2022-10-26T03:32:27.473Z,0.00
2022-10-26T03:33:28.055Z,0.00
2022-10-26T03:34:27.462Z,0.00
2022-10-26T03:35:27.442Z,0.00
2022-10-26T03:36:27.445Z,0.00
2022-10-26T03:37:27.418Z,0.00
2022-10-26T03:38:27.431Z,0.00
2022-10-26T03:39:27.417Z,0.00
2022-10-26T03:40:27.378Z,0.00
2022-10-26T03:41:27.376Z,0.00
2022-10-26T03:42:27.365Z,0.00
2022-10-26T03:43:27.367Z,0.00
2022-10-26T03:44:27.335Z,0.00
2022-10-26T03:45:27.328Z,0.00
2022-10-26T03:46:27.322Z,0.00
2022-10-26T03:47:27.296Z,0.00
2022-10-26T03:48:27.284Z,0.00
2022-10-26T03:49:27.284Z,0.00
2022-10-26T03:50:27.273Z,0.00
2022-10-26T03:51:27.265Z,0.00
2022-10-26T03:52:27.269Z,0.00
2022-10-26T03:53:27.236Z,0.00
2022-10-26T03:54:27.226Z,0.00
2022-10-26T03:55:27.237Z,0.00
2022-10-26T03:56:27.202Z,0.00
2022-10-26T03:57:27.202Z,0.00
2022-10-26T03:58:27.189Z,0.00
2022-10-26T03:59:27.167Z,0.00
2022-10-26T04:00:27.163Z,0.00
2022-10-26T04:01:27.235Z,0.00
2022-10-26T04:02:27.134Z,0.00
2022-10-26T04:03:27.119Z,0.00
2022-10-26T04:04:27.178Z,0.00
2022-10-26T04:05:27.110Z,0.00
2022-10-26T04:06:27.090Z,0.00
2022-10-26T04:07:27.079Z,0.00
2022-10-26T04:08:27.076Z,0.00
2022-10-26T04:09:27.065Z,0.00
2022-10-26T04:10:27.053Z,0.00
2022-10-26T04:11:27.072Z,0.00
2022-10-26T04:12:27.024Z,0.00
2022-10-26T04:13:27.010Z,0.00
2022-10-26T04:14:27.001Z,0.00
2022-10-26T04:15:26.992Z,0.00
2022-10-26T04:16:31.019Z,0.00
2022-10-26T04:17:27.972Z,0.00
2022-10-26T04:18:26.952Z,0.00
2022-10-26T04:19:26.950Z,0.00
2022-10-26T04:20:26.950Z,0.00
2022-10-26T04:21:26.920Z,0.00
2022-10-26T04:22:26.907Z,0.00
2022-10-26T04:23:26.919Z,0.00
2022-10-26T04:24:26.882Z,0.00
2022-10-26T04:25:30.067Z,0.00
2022-10-26T04:26:27.892Z,0.00
2022-10-26T04:27:26.876Z,0.00
2022-10-26T04:28:26.838Z,0.00
2022-10-26T04:29:26.835Z,0.00
2022-10-26T04:30:26.823Z,0.00
2022-10-26T04:31:26.812Z,0.00
2022-10-26T04:32:26.805Z,0.00
2022-10-26T04:33:26.788Z,0.00
2022-10-26T04:34:26.773Z,0.00
2022-10-26T04:35:26.769Z,0.00
2022-10-26T04:36:26.772Z,0.00
2022-10-26T04:37:26.759Z,0.00
2022-10-26T04:38:26.728Z,0.00
2022-10-26T04:39:26.733Z,0.00
2022-10-26T04:40:26.708Z,0.00
2022-10-26T04:41:26.727Z,0.00
2022-10-26T04:42:26.690Z,0.00
2022-10-26T04:43:26.722Z,0.00
2022-10-26T04:44:26.673Z,0.00
2022-10-26T04:45:26.672Z,0.00
2022-10-26T04:46:26.631Z,0.00
2022-10-26T04:47:26.648Z,0.00
2022-10-26T04:48:26.620Z,0.00
2022-10-26T04:49:26.606Z,0.00
2022-10-26T04:50:28.392Z,0.00
2022-10-26T04:51:26.596Z,0.00
2022-10-26T04:52:26.594Z,0.00
2022-10-26T04:53:26.556Z,0.00
2022-10-26T04:54:26.562Z,0.00
2022-10-26T04:55:26.537Z,0.00
2022-10-26T04:56:26.542Z,0.00
2022-10-26T04:57:26.507Z,0.00
2022-10-26T04:58:26.542Z,0.00
2022-10-26T04:59:26.526Z,0.00
2022-10-26T05:00:26.497Z,0.00
2022-10-26T05:01:26.663Z,0.00
2022-10-26T05:02:26.708Z,0.00
2022-10-26T05:03:26.448Z,0.00
2022-10-26T05:04:26.455Z,0.00
2022-10-26T05:05:26.442Z,0.00
2022-10-26T05:06:26.435Z,0.00
2022-10-26T05:07:26.417Z,0.00
2022-10-26T05:08:26.393Z,0.00
2022-10-26T05:09:26.395Z,0.00
2022-10-26T05:10:26.426Z,0.00
2022-10-26T05:11:26.359Z,0.00
2022-10-26T05:12:26.395Z,0.00
2022-10-26T05:14:26.351Z,0.00
2022-10-26T05:15:26.346Z,0.00
2022-10-26T05:16:26.300Z,0.00
2022-10-26T05:17:26.293Z,0.00
2022-10-26T05:18:26.312Z,0.00
2022-10-26T05:19:26.269Z,0.00
2022-10-26T05:20:26.264Z,0.00
2022-10-26T05:21:26.262Z,0.00
2022-10-26T05:22:26.240Z,0.00
2022-10-26T05:23:26.296Z,0.00
2022-10-26T05:24:26.260Z,0.00
2022-10-26T05:25:26.219Z,0.00
2022-10-26T05:26:26.192Z,0.00
2022-10-26T05:27:26.176Z,0.00
2022-10-26T05:28:26.201Z,0.00
2022-10-26T05:29:26.192Z,0.00
2022-10-26T05:30:26.152Z,0.00
2022-10-26T05:31:26.182Z,0.00
2022-10-26T05:32:26.137Z,0.00
2022-10-26T05:33:26.183Z,0.00
2022-10-26T05:34:26.121Z,0.00
2022-10-26T05:35:26.118Z,0.00
2022-10-26T05:36:26.093Z,0.00
2022-10-26T05:37:26.089Z,0.00
2022-10-26T05:39:26.035Z,0.00
2022-10-26T05:40:26.048Z,0.00
2022-10-26T05:41:26.057Z,0.00
2022-10-26T05:42:26.023Z,0.00
2022-10-26T05:43:25.996Z,0.00
2022-10-26T05:44:26.052Z,0.00
2022-10-26T05:45:25.982Z,0.00
2022-10-26T05:46:25.963Z,0.00
2022-10-26T05:47:25.990Z,0.00
2022-10-26T05:48:25.959Z,0.00
2022-10-26T05:49:25.947Z,0.00
2022-10-26T05:50:25.935Z,0.00
2022-10-26T05:51:25.933Z,0.00
2022-10-26T05:52:25.904Z,0.00
2022-10-26T05:53:25.935Z,0.00
2022-10-26T05:54:25.871Z,4.00
2022-10-26T05:55:25.865Z,0.00
2022-10-26T05:56:25.876Z,4.00
2022-10-26T05:57:25.964Z,4.00
2022-10-26T05:58:25.828Z,4.00
2022-10-26T05:59:26.014Z,4.00
2022-10-26T06:00:25.811Z,8.00
2022-10-26T06:01:26.121Z,8.00
2022-10-26T06:02:26.051Z,8.00
2022-10-26T06:03:25.862Z,12.00
2022-10-26T06:04:25.809Z,12.00
2022-10-26T06:05:25.752Z,12.00
2022-10-26T06:06:25.747Z,16.00
2022-10-26T06:07:25.736Z,12.00
2022-10-26T06:08:25.723Z,16.00
2022-10-26T06:09:25.763Z,20.00
2022-10-26T06:10:25.730Z,20.00
2022-10-26T06:11:25.859Z,20.00
2022-10-26T06:12:25.676Z,24.00
2022-10-26T06:13:25.661Z,24.00
2022-10-26T06:14:25.651Z,28.00
2022-10-26T06:15:25.650Z,32.00
2022-10-26T06:16:25.629Z,36.00
2022-10-26T06:17:25.630Z,40.00
2022-10-26T06:18:25.602Z,44.00
2022-10-26T06:19:25.616Z,48.00
2022-10-26T06:20:25.609Z,52.00
2022-10-26T06:21:25.571Z,60.00
2022-10-26T06:22:25.590Z,64.00
2022-10-26T06:23:25.555Z,72.00
2022-10-26T06:24:25.614Z,72.00
2022-10-26T06:25:25.541Z,80.00
2022-10-26T06:26:25.550Z,84.00
2022-10-26T06:27:25.515Z,92.00
2022-10-26T06:28:25.560Z,96.00
2022-10-26T06:29:25.615Z,100.00
2022-10-26T06:30:25.487Z,104.00
2022-10-26T06:31:25.507Z,108.00
2022-10-26T06:32:25.467Z,112.00
2022-10-26T06:33:29.432Z,116.00
2022-10-26T06:34:25.438Z,120.00
2022-10-26T06:35:25.442Z,128.00
2022-10-26T06:36:25.417Z,136.00
2022-10-26T06:37:25.449Z,148.00
2022-10-26T06:38:25.418Z,164.00
2022-10-26T06:39:25.382Z,184.00
2022-10-26T06:40:25.356Z,208.00
2022-10-26T06:41:25.338Z,236.00
2022-10-26T06:42:25.345Z,264.00
2022-10-26T06:43:25.324Z,296.00
2022-10-26T06:44:25.321Z,332.00
2022-10-26T06:45:25.293Z,368.00
2022-10-26T06:46:25.338Z,400.00
2022-10-26T06:47:25.301Z,424.00
2022-10-26T06:48:25.265Z,440.00
2022-10-26T06:49:25.267Z,448.00
2022-10-26T06:50:25.257Z,464.00
2022-10-26T06:51:25.435Z,500.00
2022-10-26T06:52:25.225Z,544.00
2022-10-26T06:53:25.239Z,588.00
2022-10-26T06:54:25.220Z,616.00
2022-10-26T06:55:25.229Z,648.00
2022-10-26T06:56:25.174Z,668.00
2022-10-26T06:57:25.208Z,692.00
2022-10-26T06:58:25.168Z,716.00
2022-10-26T06:59:25.209Z,732.00
2022-10-26T07:00:25.291Z,732.00
2022-10-26T07:01:25.305Z,704.00
2022-10-26T07:02:25.329Z,668.00
2022-10-26T07:03:25.106Z,644.00
2022-10-26T07:04:25.088Z,624.00
2022-10-26T07:05:25.065Z,616.00
2022-10-26T07:06:25.074Z,608.00
2022-10-26T07:07:25.972Z,596.00
2022-10-26T07:08:25.065Z,576.00
2022-10-26T07:09:25.024Z,560.00
2022-10-26T07:10:25.220Z,556.00
2022-10-26T07:11:25.013Z,568.00
2022-10-26T07:12:26.041Z,592.00
2022-10-26T07:13:24.986Z,620.00
2022-10-26T07:14:25.639Z,652.00
2022-10-26T07:15:24.980Z,696.00
2022-10-26T07:16:24.962Z,764.00
2022-10-26T07:17:24.955Z,844.00
2022-10-26T07:18:24.935Z,940.00
2022-10-26T07:19:24.918Z,1084.00
2022-10-26T07:20:25.003Z,1236.00
2022-10-26T07:21:24.901Z,1376.00
2022-10-26T07:22:24.897Z,1516.00
2022-10-26T07:23:24.926Z,1624.00
2022-10-26T07:24:24.936Z,1700.00
2022-10-26T07:25:24.853Z,1764.00
2022-10-26T07:26:24.837Z,1852.00
2022-10-26T07:27:24.841Z,1976.00
2022-10-26T07:28:24.814Z,2108.00
2022-10-26T07:29:24.832Z,2192.00
2022-10-26T07:30:24.818Z,2212.00
2022-10-26T07:31:24.775Z,2232.00
2022-10-26T07:32:24.775Z,2252.00
2022-10-26T07:33:24.776Z,2324.00
2022-10-26T07:34:24.778Z,2400.00
2022-10-26T07:35:24.748Z,2476.00
2022-10-26T07:36:24.820Z,2532.00
2022-10-26T07:37:24.724Z,2576.00
2022-10-26T07:38:24.738Z,2624.00
2022-10-26T07:39:24.720Z,2668.00
2022-10-26T07:40:25.196Z,2676.00
2022-10-26T07:41:24.707Z,2680.00
2022-10-26T07:42:25.480Z,2724.00
2022-10-26T07:43:24.644Z,2836.00
2022-10-26T07:44:24.703Z,3052.00
2022-10-26T07:45:24.625Z,3280.00
2022-10-26T07:46:24.646Z,3372.00
2022-10-26T07:47:24.604Z,3376.00
2022-10-26T07:48:24.608Z,3372.00
2022-10-26T07:49:27.542Z,3356.00
2022-10-26T07:50:24.565Z,3340.00
2022-10-26T07:51:24.548Z,3332.00
2022-10-26T07:52:24.651Z,3316.00
2022-10-26T07:53:27.824Z,3320.00
2022-10-26T07:54:24.533Z,3332.00
2022-10-26T07:55:24.552Z,3360.00
2022-10-26T07:56:24.527Z,3404.00
2022-10-26T07:57:24.506Z,3440.00
2022-10-26T07:58:24.552Z,3468.00
2022-10-26T07:59:24.470Z,3500.00
2022-10-26T08:00:24.597Z,3516.00
2022-10-26T08:01:24.646Z,3516.00
2022-10-26T08:02:24.452Z,3516.00
2022-10-26T08:03:24.414Z,3520.00
2022-10-26T08:04:24.431Z,3536.00
2022-10-26T08:05:24.453Z,3556.00
2022-10-26T08:06:24.451Z,3584.00
2022-10-26T08:07:24.392Z,3620.00
2022-10-26T08:08:24.380Z,3652.00
2022-10-26T08:09:24.405Z,3684.00
2022-10-26T08:10:24.367Z,3708.00
2022-10-26T08:11:24.357Z,3740.00
2022-10-26T08:12:24.409Z,3772.00
2022-10-26T08:13:24.316Z,3800.00
2022-10-26T08:14:24.305Z,3824.00
2022-10-26T08:15:24.309Z,3828.00
2022-10-26T08:16:24.330Z,3820.00
2022-10-26T08:17:24.267Z,3780.00
2022-10-26T08:18:24.259Z,3740.00
2022-10-26T08:19:24.249Z,3724.00
2022-10-26T08:20:24.236Z,3712.00
2022-10-26T08:21:36.324Z,3728.00
2022-10-26T08:22:25.274Z,3740.00
2022-10-26T08:23:24.208Z,3784.00
2022-10-26T08:24:24.209Z,3804.00
2022-10-26T08:25:24.189Z,3828.00
2022-10-26T08:26:24.194Z,3876.00
2022-10-26T08:27:24.186Z,3968.00
2022-10-26T08:28:24.148Z,4140.00
2022-10-26T08:29:24.156Z,4408.00
2022-10-26T08:30:24.212Z,4680.00
2022-10-26T08:31:24.197Z,4960.00
2022-10-26T08:32:24.114Z,5180.00
2022-10-26T08:33:24.178Z,5304.00
2022-10-26T08:34:24.099Z,5384.00
2022-10-26T08:35:24.068Z,5472.00
2022-10-26T08:36:24.104Z,5428.00
2022-10-26T08:37:24.072Z,5408.00
2022-10-26T08:38:24.034Z,5464.00
2022-10-26T08:39:24.035Z,5368.00
2022-10-26T08:40:24.006Z,5416.00
2022-10-26T08:41:23.994Z,5464.00
2022-10-26T08:42:24.011Z,5540.00
2022-10-26T08:43:24.005Z,5632.00
2022-10-26T08:44:23.976Z,5868.00
2022-10-26T08:45:29.513Z,6256.00
2022-10-26T08:46:24.939Z,6200.00
2022-10-26T08:47:24.483Z,6332.00
2022-10-26T08:48:23.917Z,6360.00
2022-10-26T08:49:23.917Z,6372.00
2022-10-26T08:50:23.931Z,6368.00
2022-10-26T08:51:23.887Z,6236.00
2022-10-26T08:52:23.963Z,6384.00
2022-10-26T08:53:24.463Z,6412.00
2022-10-26T08:54:23.855Z,6540.00
2022-10-26T08:55:23.883Z,6884.00
2022-10-26T08:56:23.824Z,6760.00
2022-10-26T08:57:23.865Z,6480.00
2022-10-26T08:58:23.831Z,6356.00
2022-10-26T08:59:23.818Z,6360.00
2022-10-26T09:00:23.819Z,6400.00
2022-10-26T09:01:23.979Z,6376.00
2022-10-26T09:02:23.753Z,6268.00
2022-10-26T09:03:23.809Z,6224.00
2022-10-26T09:04:23.766Z,6196.00
2022-10-26T09:05:23.761Z,6164.00
2022-10-26T09:06:23.977Z,6144.00
2022-10-26T09:07:23.731Z,6152.00
2022-10-26T09:08:23.704Z,6168.00
2022-10-26T09:09:23.729Z,6196.00
2022-10-26T09:10:23.737Z,6196.00
2022-10-26T09:11:23.667Z,6200.00
2022-10-26T09:12:23.713Z,6216.00
2022-10-26T09:13:23.639Z,6240.00
2022-10-26T09:14:23.657Z,6228.00
2022-10-26T09:15:23.677Z,6260.00
2022-10-26T09:16:23.604Z,6296.00
2022-10-26T09:17:23.982Z,6340.00
2022-10-26T09:18:23.622Z,6364.00
2022-10-26T09:19:23.589Z,6380.00
2022-10-26T09:20:23.568Z,6492.00
2022-10-26T09:21:23.552Z,6560.00
2022-10-26T09:22:23.546Z,6628.00
2022-10-26T09:23:23.555Z,6680.00
2022-10-26T09:24:23.527Z,6644.00
2022-10-26T09:25:23.515Z,6612.00
2022-10-26T09:26:23.573Z,6656.00
2022-10-26T09:27:23.492Z,6360.00
2022-10-26T09:28:23.505Z,6184.00
2022-10-26T09:29:23.470Z,6120.00
2022-10-26T09:30:23.491Z,6220.00
2022-10-26T09:31:23.454Z,6544.00
2022-10-26T09:32:23.448Z,7004.00
2022-10-26T09:33:23.460Z,6760.00
2022-10-26T09:34:23.402Z,7068.00
2022-10-26T09:35:23.503Z,7720.00
2022-10-26T09:36:23.411Z,7152.00
2022-10-26T09:37:23.371Z,7120.00
2022-10-26T09:38:23.370Z,7148.00
2022-10-26T09:39:23.972Z,7128.00
2022-10-26T09:40:23.333Z,6864.00
2022-10-26T09:41:24.448Z,6584.00
2022-10-26T09:42:23.670Z,6792.00
2022-10-26T09:43:23.311Z,6540.00
2022-10-26T09:44:23.335Z,6520.00
2022-10-26T09:45:23.390Z,5752.00
2022-10-26T09:46:23.392Z,5696.00
2022-10-26T09:47:23.303Z,5936.00
2022-10-26T09:48:23.259Z,5940.00
2022-10-26T09:49:23.236Z,6100.00
2022-10-26T09:50:23.227Z,6448.00
2022-10-26T09:51:23.256Z,7016.00
2022-10-26T09:52:23.227Z,6740.00
2022-10-26T09:53:23.190Z,6456.00
2022-10-26T09:54:23.262Z,6372.00
2022-10-26T09:55:23.191Z,6304.00
2022-10-26T09:56:23.223Z,6072.00
2022-10-26T09:57:23.219Z,6216.00
2022-10-26T09:58:23.207Z,5816.00
2022-10-26T09:59:23.153Z,5680.00
2022-10-26T10:00:23.177Z,5616.00
2022-10-26T10:01:23.214Z,5516.00
2022-10-26T10:02:23.103Z,5492.00
2022-10-26T10:03:23.189Z,5508.00
2022-10-26T10:04:23.096Z,5548.00
2022-10-26T10:05:32.826Z,5632.00
2022-10-26T10:06:24.053Z,5756.00
2022-10-26T10:07:23.095Z,5912.00
2022-10-26T10:08:23.040Z,6112.00
2022-10-26T10:09:23.032Z,6344.00
2022-10-26T10:10:23.044Z,6284.00
2022-10-26T10:11:23.037Z,6416.00
2022-10-26T10:12:22.983Z,6248.00
2022-10-26T10:13:22.972Z,6456.00
2022-10-26T10:14:22.966Z,6648.00
2022-10-26T10:15:23.037Z,6612.00
2022-10-26T10:16:22.972Z,6584.00
2022-10-26T10:17:22.946Z,6600.00
2022-10-26T10:18:22.937Z,6732.00
2022-10-26T10:19:22.943Z,6432.00
2022-10-26T10:20:22.983Z,6184.00
2022-10-26T10:21:22.900Z,5876.00
2022-10-26T10:22:22.882Z,5276.00
2022-10-26T10:23:22.976Z,5420.00
2022-10-26T10:24:22.853Z,5640.00
2022-10-26T10:25:22.863Z,5612.00
2022-10-26T10:26:22.822Z,5712.00
2022-10-26T10:27:22.827Z,5676.00
2022-10-26T10:28:22.836Z,5656.00
2022-10-26T10:29:22.838Z,5624.00
2022-10-26T10:30:22.806Z,5616.00
2022-10-26T10:31:22.774Z,5616.00
2022-10-26T10:32:22.757Z,5620.00
2022-10-26T10:33:22.759Z,5640.00
2022-10-26T10:34:22.776Z,5680.00
2022-10-26T10:35:23.331Z,5500.00
2022-10-26T10:36:22.840Z,5724.00
2022-10-26T10:37:22.729Z,5744.00
2022-10-26T10:38:22.705Z,5792.00
2022-10-26T10:39:22.758Z,5836.00
2022-10-26T10:40:22.689Z,5880.00
2022-10-26T10:41:22.671Z,5752.00
2022-10-26T10:42:22.673Z,5748.00
2022-10-26T10:43:22.708Z,5284.00
2022-10-26T10:44:22.650Z,5124.00
2022-10-26T10:45:22.625Z,5140.00
2022-10-26T10:46:22.605Z,5124.00
2022-10-26T10:47:22.616Z,5100.00
2022-10-26T10:48:22.659Z,5060.00
2022-10-26T10:49:22.720Z,5056.00
2022-10-26T10:50:22.672Z,5092.00
2022-10-26T10:51:22.575Z,5204.00
2022-10-26T10:52:22.560Z,5356.00
2022-10-26T10:53:22.563Z,5780.00
2022-10-26T10:54:22.528Z,6024.00
2022-10-26T10:55:22.520Z,5432.00
2022-10-26T10:56:22.519Z,6380.00
2022-10-26T10:57:22.486Z,6400.00
2022-10-26T10:58:22.489Z,6404.00
2022-10-26T10:59:22.471Z,6436.00
2022-10-26T11:00:22.489Z,5908.00
2022-10-26T11:01:22.685Z,5992.00
2022-10-26T11:02:22.595Z,6600.00
2022-10-26T11:03:25.051Z,6272.00
2022-10-26T11:04:22.416Z,6392.00
2022-10-26T11:05:26.242Z,6408.00
2022-10-26T11:06:23.425Z,5664.00
2022-10-26T11:07:22.407Z,5932.00
2022-10-26T11:08:22.371Z,5788.00
2022-10-26T11:09:22.347Z,5860.00
2022-10-26T11:10:22.337Z,6344.00
2022-10-26T11:11:22.435Z,6344.00
2022-10-26T11:12:22.432Z,6380.00
2022-10-26T11:13:23.473Z,6248.00
2022-10-26T11:14:22.402Z,6172.00
2022-10-26T11:15:22.284Z,6192.00
2022-10-26T11:16:22.282Z,6252.00
2022-10-26T11:17:22.276Z,6388.00
2022-10-26T11:18:22.255Z,6488.00
2022-10-26T11:19:22.297Z,6752.00
2022-10-26T11:20:22.246Z,7320.00
2022-10-26T11:21:22.222Z,7912.00
2022-10-26T11:22:22.497Z,8260.00
2022-10-26T11:23:22.215Z,8296.00
2022-10-26T11:24:22.213Z,7620.00
2022-10-26T11:25:22.191Z,8568.00
2022-10-26T11:26:22.198Z,8608.00
2022-10-26T11:27:22.164Z,8684.00
2022-10-26T11:28:22.157Z,8740.00
2022-10-26T11:29:22.128Z,8336.00
2022-10-26T11:30:22.144Z,8376.00
2022-10-26T11:31:22.115Z,8556.00
2022-10-26T11:32:22.124Z,9208.00
2022-10-26T11:33:22.102Z,9448.00
2022-10-26T11:34:22.079Z,9688.00
2022-10-26T11:35:22.078Z,9956.00
2022-10-26T11:36:22.278Z,10168.00
2022-10-26T11:37:22.051Z,10348.00
2022-10-26T11:38:28.279Z,10376.00
2022-10-26T11:39:23.046Z,10284.00
2022-10-26T11:40:22.055Z,9520.00
2022-10-26T11:41:22.009Z,9588.00
2022-10-26T11:42:22.005Z,9960.00
2022-10-26T11:43:21.988Z,9684.00
2022-10-26T11:44:21.980Z,9216.00
2022-10-26T11:45:21.984Z,8660.00
2022-10-26T11:46:22.056Z,8204.00
2022-10-26T11:47:22.056Z,7932.00
2022-10-26T11:48:22.004Z,7732.00
2022-10-26T11:49:21.929Z,7556.00
2022-10-26T11:50:21.921Z,7580.00
2022-10-26T11:51:21.932Z,7556.00
2022-10-26T11:52:21.881Z,7508.00
2022-10-26T11:53:21.862Z,7212.00
2022-10-26T11:55:21.885Z,7128.00
2022-10-26T11:56:21.840Z,7168.00
2022-10-26T11:57:21.861Z,7300.00
2022-10-26T11:58:21.835Z,7340.00
2022-10-26T11:59:21.806Z,7376.00
2022-10-26T12:00:21.799Z,7452.00
2022-10-26T12:01:21.894Z,6900.00
2022-10-26T12:02:21.805Z,7396.00
2022-10-26T12:03:21.783Z,7504.00
2022-10-26T12:04:21.772Z,7168.00
2022-10-26T12:05:21.740Z,7596.00
2022-10-26T12:06:21.737Z,7632.00
2022-10-26T12:07:21.716Z,7652.00
2022-10-26T12:08:21.737Z,7460.00
2022-10-26T12:09:21.741Z,6512.00
2022-10-26T12:10:23.807Z,7744.00
2022-10-26T12:11:21.707Z,7884.00
2022-10-26T12:12:21.662Z,7360.00
2022-10-26T12:13:21.658Z,6584.00
2022-10-26T12:14:21.671Z,6628.00
2022-10-26T12:15:22.836Z,6912.00
2022-10-26T12:16:21.612Z,7880.00
2022-10-26T12:17:21.597Z,6808.00
2022-10-26T12:18:36.726Z,6800.00
2022-10-26T12:19:22.661Z,8952.00
2022-10-26T12:20:21.580Z,8808.00
2022-10-26T12:21:21.562Z,7368.00
2022-10-26T12:22:21.569Z,8148.00
2022-10-26T12:23:33.942Z,8880.00
2022-10-26T12:24:22.549Z,9024.00
2022-10-26T12:25:21.565Z,6952.00
2022-10-26T12:26:21.498Z,6884.00
2022-10-26T12:27:21.527Z,6920.00
2022-10-26T12:28:21.503Z,7076.00
2022-10-26T12:29:21.472Z,6892.00
2022-10-26T12:30:21.467Z,6724.00
2022-10-26T12:31:21.512Z,6708.00
2022-10-26T12:32:21.472Z,6736.00
2022-10-26T12:33:21.437Z,6704.00
2022-10-26T12:34:21.435Z,6728.00
2022-10-26T12:35:21.411Z,6736.00
2022-10-26T12:36:21.415Z,6640.00
2022-10-26T12:37:21.384Z,7272.00
2022-10-26T12:38:21.413Z,7132.00
2022-10-26T12:39:21.369Z,7632.00
2022-10-26T12:40:21.349Z,8032.00
2022-10-26T12:41:21.358Z,8464.00
2022-10-26T12:42:21.347Z,9540.00
2022-10-26T12:43:21.374Z,8856.00
2022-10-26T12:44:21.327Z,9212.00
2022-10-26T12:45:21.292Z,8844.00